Time;durP1;ratioP1;P1;durP2;ratioP2;P2;SDS_P1;SDS_P2;PMS_P1;PMS_P2;Temp;Humidity;BMP_temperature;BMP_pressure;BME280_temperature;BME280_humidity;BME280_pressure;Samples;Min_cycle;Max_cycle;Signal;HPM_P1;HPM_P2
2022/08/27 00:00:21;;;;;;;11.13;8.43;;;18.30;96.50;;;;;;5069167;28;20028;-64
2022/08/27 00:02:47;;;;;;;11.80;8.00;;;18.30;96.30;;;;;;5077052;28;20448;-64
2022/08/27 00:05:15;;;;;;;11.07;8.50;;;18.30;96.20;;;;;;5059432;28;20076;-64
2022/08/27 00:07:41;;;;;;;12.18;7.53;;;18.30;96.20;;;;;;5060430;28;20450;-65
2022/08/27 00:10:21;;;;;;;13.63;9.02;;;18.30;96.20;;;;;;5075691;28;20024;-63
2022/08/27 00:12:51;;;;;;;12.95;9.00;;;18.30;96.10;;;;;;5077143;28;20023;-64
2022/08/27 00:15:17;;;;;;;12.20;8.80;;;18.30;96.00;;;;;;5076927;28;20028;-64
2022/08/27 00:17:44;;;;;;;10.52;8.32;;;18.30;96.10;;;;;;5073606;28;20028;-64
2022/08/27 00:20:10;;;;;;;15.10;9.00;;;18.30;96.00;;;;;;5068376;28;20029;-65
2022/08/27 00:22:36;;;;;;;10.93;7.85;;;18.20;95.60;;;;;;5070005;28;20017;-65
2022/08/27 00:25:05;;;;;;;14.02;9.52;;;18.20;95.80;;;;;;5065822;28;20401;-65
2022/08/27 00:27:31;;;;;;;13.55;9.82;;;18.30;96.00;;;;;;5076575;28;20048;-64
2022/08/27 00:29:56;;;;;;;13.60;9.32;;;18.40;96.10;;;;;;5069157;28;20052;-64
2022/08/27 00:32:22;;;;;;;11.43;8.10;;;18.40;96.10;;;;;;5062768;28;20457;-64
2022/08/27 00:34:48;;;;;;;10.95;8.07;;;18.40;96.40;;;;;;5067868;28;20071;-65
2022/08/27 00:37:14;;;;;;;9.40;7.07;;;18.40;96.20;;;;;;5074321;28;20028;-66
2022/08/27 00:39:39;;;;;;;11.65;7.65;;;18.30;96.20;;;;;;5074340;28;20040;-65
2022/08/27 00:42:06;;;;;;;11.13;7.70;;;18.30;96.10;;;;;;5077937;28;20028;-65
2022/08/27 00:44:32;;;;;;;12.48;8.75;;;18.40;96.10;;;;;;5076235;28;20043;-66
2022/08/27 00:47:21;;;;;;;9.95;7.72;;;18.40;96.10;;;;;;5076506;28;20047;-65
2022/08/27 00:49:53;;;;;;;10.40;8.65;;;18.40;96.10;;;;;;5076649;28;20020;-65
2022/08/27 00:52:29;;;;;;;12.10;9.30;;;18.40;96.30;;;;;;5076697;28;20054;-66
2022/08/27 00:55:04;;;;;;;10.90;7.68;;;18.40;96.40;;;;;;5074164;28;20437;-65
2022/08/27 00:57:30;;;;;;;11.85;8.63;;;18.40;96.20;;;;;;5068204;28;20042;-66
2022/08/27 00:59:56;;;;;;;10.60;7.43;;;18.40;96.10;;;;;;5076559;28;20405;-66
2022/08/27 01:02:24;;;;;;;11.32;8.40;;;18.30;96.10;;;;;;5076276;28;20037;-66
2022/08/27 01:04:56;;;;;;;10.30;8.38;;;18.30;96.20;;;;;;5077154;28;20117;-65
2022/08/27 01:07:23;;;;;;;11.23;8.52;;;18.30;96.20;;;;;;5076179;28;20145;-65
2022/08/27 01:09:50;;;;;;;10.55;8.02;;;18.30;96.40;;;;;;5072722;28;21750;-65
2022/08/27 01:12:16;;;;;;;10.45;7.35;;;18.40;96.30;;;;;;5076874;28;20029;-65
2022/08/27 01:14:44;;;;;;;12.43;8.27;;;18.40;96.30;;;;;;5076113;28;20024;-65
2022/08/27 01:17:11;;;;;;;13.85;9.30;;;18.40;96.40;;;;;;5074947;28;20020;-64
2022/08/27 01:19:48;;;;;;;12.95;8.63;;;18.40;96.40;;;;;;5076045;28;20025;-65
2022/08/27 01:22:36;;;;;;;10.40;7.97;;;18.40;96.20;;;;;;5077141;28;20425;-66
2022/08/27 01:25:08;;;;;;;12.23;8.32;;;18.30;96.30;;;;;;5073986;28;20036;-65
2022/08/27 01:27:35;;;;;;;10.32;8.02;;;18.30;96.10;;;;;;5075780;28;20054;-65
2022/08/27 01:30:02;;;;;;;10.15;7.50;;;18.30;95.80;;;;;;5074493;28;20613;-65
2022/08/27 01:32:31;;;;;;;12.40;8.13;;;18.30;95.90;;;;;;5073636;28;20016;-65
2022/08/27 01:34:57;;;;;;;12.60;8.65;;;18.40;96.40;;;;;;5075107;28;20028;-65
2022/08/27 01:37:25;;;;;;;10.40;7.53;;;18.30;96.30;;;;;;5076265;28;20028;-65
2022/08/27 01:39:53;;;;;;;11.00;8.32;;;18.40;96.30;;;;;;5074832;28;20052;-65
2022/08/27 01:42:38;;;;;;;12.55;8.73;;;18.40;96.40;;;;;;5073180;28;20073;-65
2022/08/27 01:45:17;;;;;;;12.65;9.25;;;18.30;96.50;;;;;;5070535;28;20035;-66
2022/08/27 01:47:43;;;;;;;11.32;8.25;;;18.30;96.50;;;;;;5069955;28;20083;-65
2022/08/27 01:50:17;;;;;;;13.38;9.50;;;18.30;96.50;;;;;;5075497;28;20105;-65
2022/08/27 01:52:43;;;;;;;11.55;8.30;;;18.30;96.40;;;;;;5074299;28;20028;-65
2022/08/27 01:55:12;;;;;;;13.77;9.02;;;18.30;96.20;;;;;;5075188;28;20107;-65
2022/08/27 01:57:39;;;;;;;13.23;9.48;;;18.20;96.10;;;;;;5075098;28;20101;-65
2022/08/27 02:00:09;;;;;;;12.60;9.38;;;18.10;96.00;;;;;;5075749;28;20025;-65
2022/08/27 02:02:35;;;;;;;17.75;10.75;;;18.10;95.90;;;;;;5074581;28;20356;-66
2022/08/27 02:05:00;;;;;;;13.38;9.43;;;18.10;95.90;;;;;;5073614;28;20052;-65
2022/08/27 02:07:26;;;;;;;14.65;9.45;;;18.00;95.60;;;;;;5074216;28;20020;-65
2022/08/27 02:09:52;;;;;;;11.55;9.10;;;18.00;95.40;;;;;;5070762;28;20024;-65
2022/08/27 02:12:17;;;;;;;12.15;9.15;;;17.90;95.10;;;;;;5072984;28;20436;-64
2022/08/27 02:14:43;;;;;;;12.90;9.35;;;17.90;94.80;;;;;;5073378;28;20085;-63
2022/08/27 02:17:11;;;;;;;12.68;9.07;;;17.80;95.00;;;;;;5074759;28;20036;-64
2022/08/27 02:19:37;;;;;;;14.10;11.32;;;17.80;94.60;;;;;;5075353;28;20033;-64
2022/08/27 02:22:06;;;;;;;15.88;11.50;;;17.80;94.60;;;;;;5073244;28;20036;-64
2022/08/27 02:24:31;;;;;;;14.75;11.65;;;17.70;94.50;;;;;;5072727;28;20339;-65
2022/08/27 02:26:57;;;;;;;15.10;10.20;;;17.60;94.30;;;;;;5072763;28;20029;-65
2022/08/27 02:29:24;;;;;;;18.13;13.32;;;17.60;94.00;;;;;;5074318;28;20025;-66
2022/08/27 02:31:49;;;;;;;18.27;14.57;;;17.50;93.40;;;;;;5074686;28;20420;-64
2022/08/27 02:34:16;;;;;;;20.90;16.85;;;17.40;92.90;;;;;;5074266;28;20032;-65
2022/08/27 02:36:42;;;;;;;21.75;14.57;;;17.40;92.80;;;;;;5075333;28;20044;-65
2022/08/27 02:39:09;;;;;;;24.25;18.70;;;17.40;92.60;;;;;;5072518;28;20028;-65
2022/08/27 02:41:35;;;;;;;29.33;20.55;;;17.40;92.40;;;;;;5066944;28;20418;-66
2022/08/27 02:44:01;;;;;;;25.75;19.52;;;17.40;92.60;;;;;;5059643;28;20025;-65
2022/08/27 02:46:27;;;;;;;27.52;20.15;;;17.50;92.50;;;;;;5073737;28;20017;-66
2022/08/27 02:48:53;;;;;;;20.23;14.77;;;17.50;92.90;;;;;;5072633;28;20373;-65
2022/08/27 02:51:19;;;;;;;19.27;13.55;;;17.50;92.80;;;;;;5075278;28;20060;-65
2022/08/27 02:53:44;;;;;;;18.05;14.65;;;17.40;92.80;;;;;;5074706;28;20028;-65
2022/08/27 02:56:13;;;;;;;21.23;15.57;;;17.40;92.90;;;;;;5074190;28;20039;-65
2022/08/27 02:58:40;;;;;;;20.45;15.50;;;17.40;92.80;;;;;;5074244;28;20819;-65
2022/08/27 03:01:05;;;;;;;19.95;15.50;;;17.30;92.50;;;;;;5072965;28;20021;-65
2022/08/27 03:03:31;;;;;;;27.65;19.35;;;17.20;92.10;;;;;;5074220;28;20310;-65
2022/08/27 03:05:57;;;;;;;26.70;18.77;;;17.20;91.80;;;;;;5074352;28;20066;-65
2022/08/27 03:08:25;;;;;;;25.73;19.45;;;17.20;91.50;;;;;;5074107;28;20469;-65
2022/08/27 03:10:52;;;;;;;25.80;19.88;;;17.10;91.40;;;;;;5072970;28;20449;-65
2022/08/27 03:13:18;;;;;;;29.83;22.10;;;17.10;91.20;;;;;;5075279;28;20036;-65
2022/08/27 03:15:44;;;;;;;28.17;19.38;;;17.10;90.80;;;;;;5073847;28;20028;-65
2022/08/27 03:18:20;;;;;;;29.95;21.17;;;17.10;91.00;;;;;;5073271;28;20082;-65
2022/08/27 03:20:49;;;;;;;26.60;20.88;;;17.10;90.50;;;;;;5073483;28;20028;-65
2022/08/27 03:23:16;;;;;;;31.00;22.75;;;17.10;90.50;;;;;;5073166;28;20032;-65
2022/08/27 03:25:52;;;;;;;29.17;20.30;;;17.10;90.90;;;;;;5072647;28;20028;-64
2022/08/27 03:28:21;;;;;;;23.35;17.10;;;17.10;91.00;;;;;;5067230;28;20028;-65
2022/08/27 03:30:49;;;;;;;20.52;16.52;;;17.10;90.90;;;;;;5072248;28;20023;-65
2022/08/27 03:33:15;;;;;;;24.05;16.58;;;17.00;90.80;;;;;;5071074;28;20025;-66
2022/08/27 03:35:40;;;;;;;24.05;17.70;;;17.00;90.70;;;;;;5071858;28;20138;-65
2022/08/27 03:38:06;;;;;;;22.05;16.75;;;17.00;90.80;;;;;;5072403;28;20032;-65
2022/08/27 03:40:32;;;;;;;25.13;18.55;;;17.10;90.90;;;;;;5073637;28;20104;-65
2022/08/27 03:42:58;;;;;;;25.52;18.38;;;17.10;91.00;;;;;;5074058;28;20312;-65
2022/08/27 03:45:23;;;;;;;23.42;17.90;;;17.10;91.20;;;;;;5073785;28;20028;-64
2022/08/27 03:47:50;;;;;;;24.30;19.00;;;17.20;91.40;;;;;;5074499;28;20051;-65
2022/08/27 03:50:15;;;;;;;27.17;19.65;;;17.30;91.70;;;;;;5072472;28;20485;-65
2022/08/27 03:52:41;;;;;;;25.60;19.77;;;17.30;92.00;;;;;;5073299;28;20027;-66
2022/08/27 03:55:08;;;;;;;26.55;21.02;;;17.40;92.20;;;;;;5071667;28;20028;-65
2022/08/27 03:57:33;;;;;;;25.15;19.58;;;17.50;92.70;;;;;;5073621;28;20033;-65
2022/08/27 04:00:00;;;;;;;24.63;20.33;;;17.60;92.90;;;;;;5074440;28;20096;-65
2022/08/27 04:02:26;;;;;;;27.83;21.25;;;17.60;93.40;;;;;;5074409;28;20324;-65
2022/08/27 04:04:51;;;;;;;24.98;19.40;;;17.60;93.40;;;;;;5074798;28;20053;-65
2022/08/27 04:07:20;;;;;;;25.88;20.95;;;17.60;93.10;;;;;;5075039;28;20107;-65
2022/08/27 04:09:46;;;;;;;29.35;20.77;;;17.70;93.30;;;;;;5073698;28;20324;-65
2022/08/27 04:12:11;;;;;;;27.75;21.90;;;17.70;93.40;;;;;;5072679;28;20043;-66
2022/08/27 04:14:37;;;;;;;28.92;22.83;;;17.70;93.20;;;;;;5073621;28;20037;-65
2022/08/27 04:17:03;;;;;;;36.85;28.25;;;17.80;93.70;;;;;;5073204;28;20040;-65
2022/08/27 04:19:31;;;;;;;36.30;27.27;;;17.80;93.70;;;;;;5074959;28;20432;-65
2022/08/27 04:22:02;;;;;;;38.33;27.90;;;17.90;93.80;;;;;;5072660;28;20347;-66
2022/08/27 04:24:30;;;;;;;33.58;26.00;;;17.80;93.40;;;;;;5068820;28;20054;-65
2022/08/27 04:26:56;;;;;;;45.00;32.03;;;17.90;93.70;;;;;;5074517;28;20025;-65
2022/08/27 04:29:22;;;;;;;38.72;29.17;;;17.90;93.30;;;;;;5075441;28;20024;-65
2022/08/27 04:31:48;;;;;;;41.13;29.70;;;17.90;93.30;;;;;;5076241;28;20431;-65
2022/08/27 04:34:15;;;;;;;40.67;29.80;;;17.90;93.70;;;;;;5077300;28;20064;-65
2022/08/27 04:36:41;;;;;;;37.28;27.25;;;17.90;93.30;;;;;;5076724;28;20308;-66
2022/08/27 04:39:07;;;;;;;35.33;26.40;;;17.80;93.30;;;;;;5061600;28;20107;-65
2022/08/27 04:41:33;;;;;;;32.97;25.85;;;17.90;93.40;;;;;;5076995;28;20078;-65
2022/08/27 04:44:08;;;;;;;34.90;25.83;;;17.90;93.10;;;;;;5076101;28;20030;-65
2022/08/27 04:46:39;;;;;;;34.92;24.30;;;17.90;93.60;;;;;;5074623;28;20086;-66
2022/08/27 04:49:13;;;;;;;30.40;23.80;;;17.90;93.80;;;;;;5077707;28;20029;-65
2022/08/27 04:51:39;;;;;;;30.20;22.67;;;18.00;94.60;;;;;;5074182;28;20021;-65
2022/08/27 04:54:05;;;;;;;33.97;24.42;;;17.90;94.30;;;;;;5072238;28;20051;-65
2022/08/27 04:56:32;;;;;;;34.38;25.05;;;17.90;94.20;;;;;;5075004;28;20028;-65
2022/08/27 04:58:58;;;;;;;30.85;22.60;;;17.80;94.10;;;;;;5075711;28;20423;-65
2022/08/27 05:01:28;;;;;;;34.20;23.58;;;17.80;93.50;;;;;;5075501;28;20103;-65
2022/08/27 05:03:55;;;;;;;33.38;25.58;;;17.80;93.60;;;;;;5072512;28;20080;-65
2022/08/27 05:06:25;;;;;;;28.60;21.55;;;17.70;93.30;;;;;;5077451;28;20389;-64
2022/08/27 05:08:51;;;;;;;33.28;23.85;;;17.80;93.10;;;;;;5076217;28;20104;-64
2022/08/27 05:11:19;;;;;;;32.97;23.30;;;17.70;93.00;;;;;;5075957;28;20025;-64
2022/08/27 05:13:46;;;;;;;31.77;23.65;;;17.70;93.00;;;;;;5076902;28;20317;-64
2022/08/27 05:16:18;;;;;;;29.23;23.45;;;17.70;92.90;;;;;;5076220;28;20028;-64
2022/08/27 05:18:44;;;;;;;27.17;19.85;;;17.70;92.90;;;;;;5076885;28;20020;-66
2022/08/27 05:21:17;;;;;;;28.15;19.58;;;17.80;93.00;;;;;;5075649;28;20103;-65
2022/08/27 05:23:43;;;;;;;23.40;18.63;;;18.00;93.70;;;;;;5075488;28;20033;-65
2022/08/27 05:26:09;;;;;;;26.55;19.65;;;18.20;95.10;;;;;;5075969;28;20317;-65
2022/08/27 05:28:34;;;;;;;24.65;19.58;;;18.30;95.50;;;;;;5077207;28;20158;-65
2022/08/27 05:31:08;;;;;;;26.05;20.00;;;18.40;96.10;;;;;;5075790;28;20113;-66
2022/08/27 05:33:37;;;;;;;27.50;21.00;;;18.50;97.00;;;;;;5075419;28;20409;-65
2022/08/27 05:36:03;;;;;;;25.60;20.35;;;18.50;96.80;;;;;;5075330;28;20333;-64
2022/08/27 05:38:30;;;;;;;25.25;19.92;;;18.50;96.70;;;;;;5073273;28;20033;-65
2022/08/27 05:41:10;;;;;;;22.98;18.35;;;18.40;96.60;;;;;;5074624;28;20321;-65
2022/08/27 05:43:38;;;;;;;23.90;19.70;;;18.50;96.80;;;;;;5073621;28;20052;-63
2022/08/27 05:46:07;;;;;;;26.65;18.98;;;18.50;97.00;;;;;;5067027;28;20017;-63
2022/08/27 05:48:36;;;;;;;21.35;16.85;;;18.50;96.80;;;;;;5072226;28;20047;-65
2022/08/27 05:51:19;;;;;;;23.92;18.63;;;18.50;97.00;;;;;;5072791;28;20024;-64
2022/08/27 05:53:45;;;;;;;22.80;17.70;;;18.60;97.40;;;;;;5074798;28;20024;-65
2022/08/27 05:56:15;;;;;;;25.50;20.15;;;18.50;97.30;;;;;;5075676;28;20032;-65
2022/08/27 06:01:26;;;;;;;26.83;19.48;;;18.50;96.80;;;;;;5075562;28;20090;-65
2022/08/27 06:03:55;;;;;;;24.17;18.77;;;18.40;97.30;;;;;;5073899;28;20059;-65
2022/08/27 06:06:21;;;;;;;20.60;17.17;;;18.50;97.30;;;;;;5075550;28;20044;-65
2022/08/27 06:08:49;;;;;;;26.35;19.23;;;18.60;97.50;;;;;;5074219;28;20035;-65
2022/08/27 06:11:17;;;;;;;25.67;18.77;;;18.70;97.60;;;;;;5070880;28;20024;-65
2022/08/27 06:13:42;;;;;;;24.17;19.13;;;18.60;97.50;;;;;;5075377;28;20111;-64
2022/08/27 06:16:12;;;;;;;25.38;18.83;;;18.50;97.60;;;;;;5075706;28;20108;-65
2022/08/27 06:18:40;;;;;;;23.90;19.13;;;18.60;97.50;;;;;;5074755;28;20448;-65
2022/08/27 06:21:06;;;;;;;23.35;18.50;;;18.50;97.40;;;;;;5069000;28;20459;-65
2022/08/27 06:23:33;;;;;;;22.52;17.85;;;18.50;97.40;;;;;;5071623;28;20024;-65
2022/08/27 06:25:59;;;;;;;22.50;18.02;;;18.60;97.40;;;;;;5074728;28;20067;-66
2022/08/27 06:28:30;;;;;;;23.35;16.10;;;18.70;97.40;;;;;;5073945;28;20400;-65
2022/08/27 06:31:10;;;;;;;26.83;20.70;;;18.70;97.40;;;;;;5073902;28;20024;-65
2022/08/27 06:33:37;;;;;;;22.73;17.35;;;18.70;97.90;;;;;;5071710;28;20033;-65
2022/08/27 06:36:07;;;;;;;26.00;19.90;;;18.80;97.50;;;;;;5075387;28;20032;-65
2022/08/27 06:38:33;;;;;;;28.33;22.60;;;18.90;97.80;;;;;;5075162;28;20037;-65
2022/08/27 06:40:59;;;;;;;29.15;21.38;;;18.90;98.00;;;;;;5075603;28;20405;-65
2022/08/27 06:43:25;;;;;;;26.90;21.83;;;18.90;97.80;;;;;;5070472;28;20025;-65
2022/08/27 06:45:52;;;;;;;25.00;19.58;;;18.90;97.80;;;;;;5075537;28;20067;-65
2022/08/27 06:48:18;;;;;;;25.27;20.02;;;18.90;97.60;;;;;;5073311;28;20386;-65
2022/08/27 06:50:44;;;;;;;23.23;19.27;;;19.00;98.00;;;;;;5069735;28;20020;-65
2022/08/27 06:53:10;;;;;;;24.02;18.80;;;19.00;97.80;;;;;;5074833;28;20368;-65
2022/08/27 06:55:45;;;;;;;26.10;19.52;;;19.10;97.90;;;;;;5074835;28;20025;-65
2022/08/27 06:58:12;;;;;;;25.92;19.35;;;19.20;97.80;;;;;;5074424;28;20038;-65
2022/08/27 07:00:38;;;;;;;28.45;22.50;;;19.20;97.70;;;;;;5073244;28;20021;-65
2022/08/27 07:03:05;;;;;;;23.92;20.08;;;19.20;97.90;;;;;;5072713;28;20025;-64
2022/08/27 07:05:32;;;;;;;22.52;18.02;;;19.30;97.80;;;;;;5080032;28;20032;-65
2022/08/27 07:07:58;;;;;;;25.35;19.50;;;19.50;97.90;;;;;;5075560;28;20016;-66
2022/08/27 07:10:24;;;;;;;24.13;19.30;;;19.70;97.60;;;;;;5072699;28;20189;-65
2022/08/27 07:12:50;;;;;;;28.42;21.10;;;19.90;97.40;;;;;;5074788;28;20178;-66
2022/08/27 07:15:16;;;;;;;25.27;21.25;;;20.10;96.90;;;;;;5072695;28;20032;-65
2022/08/27 07:17:43;;;;;;;25.58;19.70;;;20.20;96.80;;;;;;5074164;28;20119;-65
2022/08/27 07:20:10;;;;;;;24.63;19.95;;;20.40;96.60;;;;;;5074109;28;20082;-65
2022/08/27 07:22:39;;;;;;;23.27;19.05;;;20.40;96.40;;;;;;5072715;28;20413;-68
2022/08/27 07:25:06;;;;;;;25.90;19.30;;;20.60;96.40;;;;;;5073934;28;20112;-65
2022/08/27 07:27:32;;;;;;;25.23;19.63;;;20.60;95.30;;;;;;5072402;28;20146;-65
2022/08/27 07:29:58;;;;;;;24.52;19.13;;;20.80;95.50;;;;;;5073276;28;20052;-65
2022/08/27 07:32:24;;;;;;;25.95;18.67;;;20.80;95.30;;;;;;5075025;28;20028;-65
2022/08/27 07:34:49;;;;;;;25.77;18.20;;;20.70;95.50;;;;;;5074894;28;20362;-66
2022/08/27 07:37:15;;;;;;;20.98;16.60;;;20.70;95.30;;;;;;5072857;28;20043;-66
2022/08/27 07:39:41;;;;;;;21.83;15.88;;;20.60;95.50;;;;;;5073529;28;20099;-65
2022/08/27 07:44:50;;;;;;;;;;;21.00;94.80;;;;;;5074371;28;20035;-65
2022/08/27 07:47:19;;;;;;;23.48;17.15;;;21.30;94.00;;;;;;5074637;28;19908;-66
2022/08/27 07:49:46;;;;;;;19.95;16.20;;;21.60;92.60;;;;;;5075051;28;20037;-65
2022/08/27 07:52:12;;;;;;;20.48;16.80;;;21.60;92.30;;;;;;5080314;28;20053;-65
2022/08/27 07:54:38;;;;;;;21.48;16.70;;;21.70;90.90;;;;;;5076994;28;20130;-65
2022/08/27 07:57:03;;;;;;;18.42;15.10;;;22.00;91.00;;;;;;5074289;28;20055;-64
2022/08/27 07:59:29;;;;;;;19.33;15.00;;;22.10;90.20;;;;;;5059304;28;20067;-64
2022/08/27 08:01:56;;;;;;;19.80;15.30;;;22.10;90.10;;;;;;5069202;28;20021;-63
2022/08/27 08:04:22;;;;;;;18.92;15.43;;;22.10;90.20;;;;;;5075677;28;20166;-64
2022/08/27 08:06:49;;;;;;;20.02;15.52;;;22.20;90.30;;;;;;5063775;28;20333;-64
2022/08/27 08:09:15;;;;;;;23.95;17.48;;;22.10;90.20;;;;;;5077218;28;20352;-63
2022/08/27 08:11:40;;;;;;;19.58;16.48;;;22.00;90.40;;;;;;5075991;28;20028;-64
2022/08/27 08:14:06;;;;;;;21.95;16.38;;;22.10;90.80;;;;;;5076471;28;20024;-65
2022/08/27 08:16:32;;;;;;;21.50;17.83;;;22.20;90.70;;;;;;5078282;28;20033;-64
2022/08/27 08:18:59;;;;;;;23.75;18.50;;;21.90;90.90;;;;;;5078580;28;20424;-64
2022/08/27 08:21:25;;;;;;;19.85;16.48;;;21.50;92.20;;;;;;5078727;28;20044;-65
2022/08/27 08:23:54;;;;;;;21.80;18.88;;;21.50;92.80;;;;;;5080270;28;20038;-64
2022/08/27 08:26:23;;;;;;;22.90;18.75;;;21.60;92.60;;;;;;5079957;28;20039;-65
2022/08/27 08:28:49;;;;;;;23.42;18.13;;;21.50;92.50;;;;;;5076285;28;20032;-65
2022/08/27 08:31:14;;;;;;;25.52;20.05;;;21.30;93.00;;;;;;5071086;28;20021;-65
2022/08/27 08:33:45;;;;;;;31.02;22.90;;;21.20;93.50;;;;;;5076530;28;20103;-64
2022/08/27 08:36:14;;;;;;;26.10;21.90;;;21.10;93.70;;;;;;5072400;28;20425;-64
2022/08/27 08:38:40;;;;;;;28.80;24.42;;;20.90;94.10;;;;;;5076921;28;20106;-64
2022/08/27 08:41:41;;;;;;;30.75;23.15;;;21.00;94.00;;;;;;5076061;28;20029;-65
2022/08/27 08:44:31;;;;;;;29.23;23.40;;;21.10;93.90;;;;;;5074162;28;20421;-66
2022/08/27 08:47:08;;;;;;;27.00;22.13;;;21.00;94.20;;;;;;5066233;28;20107;-66
2022/08/27 08:49:46;;;;;;;28.40;22.10;;;21.20;93.80;;;;;;5076926;28;20025;-66
2022/08/27 08:52:42;;;;;;;29.48;24.42;;;21.40;93.50;;;;;;5076212;28;20020;-66
2022/08/27 08:55:21;;;;;;;28.92;22.92;;;21.50;92.80;;;;;;5072813;28;20333;-66
2022/08/27 08:58:12;;;;;;;26.88;22.75;;;21.50;92.90;;;;;;5078114;28;20314;-66
2022/08/27 09:00:39;;;;;;;28.05;22.70;;;21.70;92.70;;;;;;5058176;28;20029;-65
2022/08/27 09:03:05;;;;;;;28.30;22.00;;;21.90;91.80;;;;;;5058122;28;20078;-66
2022/08/27 09:05:31;;;;;;;26.63;21.27;;;21.90;91.30;;;;;;5069512;28;20107;-66
2022/08/27 09:08:18;;;;;;;27.15;22.38;;;21.90;91.80;;;;;;5077156;28;20111;-66
2022/08/27 09:11:03;;;;;;;27.77;22.48;;;21.80;91.70;;;;;;5078044;28;20052;-66
2022/08/27 09:14:06;;;;;;;26.50;20.45;;;21.90;91.70;;;;;;5078024;28;20027;-66
2022/08/27 09:16:31;;;;;;;26.85;22.15;;;21.80;91.90;;;;;;5077288;28;20107;-66
2022/08/27 09:19:00;;;;;;;30.95;22.75;;;22.00;91.50;;;;;;5076873;28;20112;-65
2022/08/27 09:21:39;;;;;;;27.77;21.60;;;22.10;90.90;;;;;;5073943;28;20025;-66
2022/08/27 09:24:05;;;;;;;28.50;22.15;;;21.80;91.40;;;;;;5068507;28;20048;-66
2022/08/27 09:26:35;;;;;;;29.33;22.50;;;21.70;92.10;;;;;;5073865;28;20388;-66
2022/08/27 09:29:14;;;;;;;28.85;22.27;;;21.70;92.30;;;;;;5073920;28;20036;-66
2022/08/27 09:31:43;;;;;;;31.25;23.25;;;21.50;92.30;;;;;;5072843;28;20024;-65
2022/08/27 09:34:11;;;;;;;27.67;23.02;;;21.50;92.20;;;;;;5071300;28;20445;-65
2022/08/27 09:37:15;;;;;;;29.73;23.20;;;21.20;93.00;;;;;;5072600;28;20035;-65
2022/08/27 09:40:00;;;;;;;29.67;23.25;;;20.90;94.10;;;;;;5072714;28;20353;-64
2022/08/27 09:42:42;;;;;;;28.40;22.67;;;20.90;94.70;;;;;;5072212;28;20111;-64
2022/08/27 09:45:17;;;;;;;27.80;23.60;;;20.90;94.70;;;;;;5074027;28;20032;-65
2022/08/27 09:47:49;;;;;;;31.80;24.02;;;20.90;94.70;;;;;;5073041;28;20357;-64
2022/08/27 09:50:18;;;;;;;28.95;22.83;;;20.70;95.00;;;;;;5074514;28;20036;-64
2022/08/27 09:52:55;;;;;;;35.33;25.92;;;20.80;95.60;;;;;;5074471;28;20021;-65
2022/08/27 09:55:45;;;;;;;33.70;26.40;;;20.90;95.30;;;;;;5073307;28;20020;-65
2022/08/27 09:58:25;;;;;;;35.00;25.92;;;20.90;95.50;;;;;;5054107;28;20036;-65
2022/08/27 10:01:22;;;;;;;36.13;29.83;;;20.70;96.10;;;;;;5071051;28;20033;-66
2022/08/27 10:03:48;;;;;;;38.30;31.45;;;20.20;96.50;;;;;;5072409;28;20055;-65
2022/08/27 10:06:26;;;;;;;39.67;32.65;;;19.90;96.90;;;;;;5073023;28;20032;-65
2022/08/27 10:08:58;;;;;;;45.50;33.60;;;19.70;96.90;;;;;;5070861;28;20067;-64
2022/08/27 10:11:36;;;;;;;39.67;31.33;;;19.80;97.10;;;;;;5073794;28;20052;-64
2022/08/27 10:14:27;;;;;;;42.55;34.85;;;19.70;96.80;;;;;;5073969;28;20624;-64
2022/08/27 10:17:11;;;;;;;45.22;37.50;;;19.70;96.90;;;;;;5072395;28;20052;-65
2022/08/27 10:20:11;;;;;;;51.72;40.55;;;19.40;95.80;;;;;;5073885;28;20036;-64
2022/08/27 10:22:45;;;;;;;54.67;39.33;;;18.90;94.20;;;;;;5070058;28;20063;-66
2022/08/27 10:25:20;;;;;;;54.13;39.05;;;18.60;91.60;;;;;;5072073;28;20356;-67
2022/08/27 10:28:06;;;;;;;40.08;26.30;;;18.50;90.50;;;;;;5073403;28;20025;-70
2022/08/27 10:30:44;;;;;;;37.40;26.67;;;18.10;91.90;;;;;;5073536;28;20465;-70
2022/08/27 10:33:33;;;;;;;37.05;22.70;;;18.00;88.40;;;;;;5072819;28;20390;-71
2022/08/27 10:36:15;;;;;;;30.40;21.88;;;17.90;87.60;;;;;;5072397;28;20347;-71
2022/08/27 10:38:49;;;;;;;37.50;24.92;;;17.80;87.00;;;;;;5063102;28;20055;-71
2022/08/27 10:41:19;;;;;;;36.63;25.15;;;17.90;85.40;;;;;;5071114;28;20417;-69
2022/08/27 10:44:13;;;;;;;28.38;20.55;;;17.90;86.20;;;;;;5072364;28;20082;-70
2022/08/27 10:46:59;;;;;;;30.83;22.10;;;18.00;83.10;;;;;;5072990;28;20070;-70
2022/08/27 10:49:39;;;;;;;32.60;23.60;;;18.10;84.20;;;;;;5073357;28;20095;-70
2022/08/27 10:52:17;;;;;;;30.67;22.13;;;18.20;84.80;;;;;;5071118;28;20033;-70
2022/08/27 10:55:09;;;;;;;27.65;22.88;;;18.30;84.60;;;;;;5069256;28;20025;-70
2022/08/27 10:58:05;;;;;;;29.23;22.80;;;18.40;85.70;;;;;;5072906;28;20115;-69
2022/08/27 11:00:41;;;;;;;24.73;20.25;;;18.40;86.50;;;;;;5073126;28;20052;-69
2022/08/27 11:03:10;;;;;;;26.95;22.45;;;18.60;84.00;;;;;;5070841;28;20029;-69
2022/08/27 11:05:57;;;;;;;26.88;21.05;;;18.80;87.90;;;;;;5072305;28;20043;-69
2022/08/27 11:08:38;;;;;;;25.30;21.10;;;18.80;89.50;;;;;;5070424;28;20047;-70
2022/08/27 11:11:27;;;;;;;25.23;21.40;;;18.80;88.30;;;;;;5072899;28;20020;-70
2022/08/27 11:13:57;;;;;;;27.13;21.30;;;18.90;88.80;;;;;;5058525;28;20114;-71
2022/08/27 11:16:32;;;;;;;31.70;22.98;;;18.70;90.00;;;;;;5058428;28;20032;-71
2022/08/27 11:19:22;;;;;;;42.47;32.58;;;18.50;89.50;;;;;;5072234;28;20057;-71
2022/08/27 11:22:02;;;;;;;36.67;28.67;;;18.30;90.20;;;;;;5072907;28;20358;-71
2022/08/27 11:24:40;;;;;;;28.23;22.00;;;18.20;87.60;;;;;;5069168;28;20033;-71
2022/08/27 11:27:07;;;;;;;31.40;23.27;;;18.10;88.60;;;;;;5072619;28;20046;-71
2022/08/27 11:29:45;;;;;;;26.63;18.33;;;17.90;88.30;;;;;;5072312;28;20032;-71
2022/08/27 11:32:28;;;;;;;20.02;15.32;;;17.90;86.00;;;;;;5070365;28;20365;-71
2022/08/27 11:35:15;;;;;;;14.95;12.50;;;18.00;86.10;;;;;;5071395;28;20098;-71
2022/08/27 11:38:02;;;;;;;13.30;10.38;;;18.10;87.10;;;;;;5072605;28;20064;-71
2022/08/27 11:40:42;;;;;;;15.18;11.73;;;18.30;86.80;;;;;;5072826;28;20028;-71
2022/08/27 11:43:14;;;;;;;10.10;7.65;;;18.60;86.20;;;;;;5076996;28;20429;-71
2022/08/27 11:45:57;;;;;;;9.55;7.47;;;18.90;87.30;;;;;;5075766;28;20028;-71
2022/08/27 11:48:25;;;;;;;9.27;7.10;;;19.10;88.80;;;;;;5075728;28;20036;-71
2022/08/27 11:50:54;;;;;;;8.98;7.22;;;19.30;91.90;;;;;;5076588;28;20111;-70
2022/08/27 11:53:27;;;;;;;10.60;7.10;;;19.40;93.10;;;;;;5073251;28;20056;-70
2022/08/27 11:55:55;;;;;;;9.93;7.40;;;19.50;92.10;;;;;;5076572;28;20052;-70
2022/08/27 11:58:20;;;;;;;9.65;6.75;;;19.80;93.60;;;;;;5075090;28;20032;-69
2022/08/27 12:00:47;;;;;;;11.50;8.45;;;19.70;92.90;;;;;;5075063;28;20031;-69
2022/08/27 12:03:24;;;;;;;10.05;8.23;;;19.60;92.60;;;;;;5074315;28;20139;-70
2022/08/27 12:05:53;;;;;;;13.98;10.60;;;19.50;91.60;;;;;;5075338;28;20036;-70
2022/08/27 12:08:21;;;;;;;13.57;11.13;;;19.60;93.10;;;;;;5072810;28;20021;-69
2022/08/27 12:11:05;;;;;;;14.60;12.60;;;19.50;92.40;;;;;;5075141;28;20024;-70
2022/08/27 12:14:11;;;;;;;14.75;12.43;;;19.50;92.70;;;;;;5055256;28;20496;-70
2022/08/27 12:16:45;;;;;;;14.00;11.75;;;19.80;90.40;;;;;;5065101;28;20040;-70
2022/08/27 12:19:29;;;;;;;17.42;14.50;;;20.20;92.60;;;;;;5074402;28;20099;-70
2022/08/27 12:22:24;;;;;;;14.30;12.02;;;20.20;93.00;;;;;;5074020;28;20039;-69
2022/08/27 12:24:54;;;;;;;;;;;20.40;94.90;;;;;;5067700;28;20308;-70
2022/08/27 12:27:20;;;;;;;12.98;10.68;;;20.90;97.20;;;;;;5071618;28;19997;-69
2022/08/27 12:29:56;;;;;;;16.38;10.07;;;20.90;94.50;;;;;;5074917;28;20060;-69
2022/08/27 12:32:40;;;;;;;11.85;8.45;;;21.00;95.40;;;;;;5064632;28;20024;-70
2022/08/27 12:35:20;;;;;;;13.45;10.15;;;20.70;95.10;;;;;;5074582;28;20329;-69
2022/08/27 12:37:49;;;;;;;11.68;10.10;;;20.90;94.90;;;;;;5073171;28;20040;-69
2022/08/27 12:40:28;;;;;;;12.55;10.05;;;20.90;94.20;;;;;;5074570;28;20028;-69
2022/08/27 12:43:14;;;;;;;12.60;9.43;;;21.00;95.70;;;;;;5057656;28;20039;-69
2022/08/27 12:45:50;;;;;;;12.10;9.93;;;21.10;96.10;;;;;;5055498;28;20083;-69
2022/08/27 12:48:24;;;;;;;10.23;9.05;;;21.00;96.90;;;;;;5072274;28;20103;-69
2022/08/27 12:51:01;;;;;;;11.20;9.35;;;21.00;97.50;;;;;;5074554;28;20691;-69
2022/08/27 12:53:40;;;;;;;12.70;9.93;;;20.90;96.50;;;;;;5072339;28;20029;-68
2022/08/27 12:56:38;;;;;;;15.18;11.00;;;20.80;96.30;;;;;;5055540;28;20037;-68